Time;durP1;ratioP1;P1;durP2;ratioP2;P2;SDS_P1;SDS_P2;PMS_P1;PMS_P2;Temp;Humidity;BMP_temperature;BMP_pressure;BME280_temperature;BME280_humidity;BME280_pressure;Samples;Min_cycle;Max_cycle;Signal;HPM_P1;HPM_P2
2023/05/13 00:00:14;;;;;;;11.50;4.70;;;;;;;;;;110452;1278;22180;-74
2023/05/13 00:03:01;;;;;;;13.60;4.80;;;;;;;;;;110462;1254;27259;-74
2023/05/13 00:05:27;;;;;;;12.00;4.50;;;;;;;;;;110453;1278;22347;-74
2023/05/13 00:07:55;;;;;;;9.50;4.80;;;;;;;;;;110434;1277;22760;-75
2023/05/13 00:10:23;;;;;;;11.90;5.00;;;;;;;;;;110411;1277;22132;-74
2023/05/13 00:12:50;;;;;;;12.70;4.50;;;;;;;;;;110296;1278;22774;-76
2023/05/13 00:15:16;;;;;;;11.50;5.50;;;;;;;;;;110393;1259;23076;-74
2023/05/13 00:17:43;;;;;;;14.40;6.00;;;;;;;;;;110328;1278;22243;-74
2023/05/13 00:20:10;;;;;;;12.70;5.40;;;;;;;;;;110431;1278;22111;-74
2023/05/13 00:22:37;;;;;;;14.40;5.90;;;;;;;;;;110316;1277;22400;-74
2023/05/13 00:25:04;;;;;;;13.50;5.50;;;;;;;;;;110584;1259;22206;-74
2023/05/13 00:27:31;;;;;;;12.40;5.10;;;;;;;;;;110296;1277;22175;-74
2023/05/13 00:30:01;;;;;;;11.40;5.10;;;;;;;;;;110428;1277;21745;-74
2023/05/13 00:32:27;;;;;;;12.30;4.70;;;;;;;;;;110417;1278;22293;-75
2023/05/13 00:34:54;;;;;;;11.30;5.10;;;;;;;;;;110594;1254;22118;-76
2023/05/13 00:37:21;;;;;;;10.30;4.90;;;;;;;;;;110304;1278;22119;-74
2023/05/13 00:39:47;;;;;;;10.20;5.20;;;;;;;;;;110302;1278;22286;-74
2023/05/13 00:42:14;;;;;;;14.40;6.70;;;;;;;;;;110288;1278;22111;-74
2023/05/13 00:44:41;;;;;;;16.20;6.30;;;;;;;;;;110401;1259;22137;-74
2023/05/13 00:47:10;;;;;;;12.90;6.30;;;;;;;;;;110274;1278;22092;-74
2023/05/13 00:49:36;;;;;;;13.10;6.60;;;;;;;;;;110144;1278;22121;-74
2023/05/13 00:52:03;;;;;;;15.50;6.80;;;;;;;;;;110373;1278;22053;-74
2023/05/13 00:54:30;;;;;;;12.40;6.60;;;;;;;;;;110489;1259;22735;-74
2023/05/13 00:56:58;;;;;;;13.80;6.10;;;;;;;;;;110373;1278;22105;-76
2023/05/13 00:59:25;;;;;;;13.50;5.70;;;;;;;;;;110390;1278;22129;-74
2023/05/13 01:02:15;;;;;;;14.10;6.10;;;;;;;;;;110300;1278;22486;-74
2023/05/13 01:04:45;;;;;;;15.80;6.30;;;;;;;;;;110405;1257;22182;-74
2023/05/13 01:07:43;;;;;;;14.00;6.60;;;;;;;;;;110354;1278;22163;-74
2023/05/13 01:10:25;;;;;;;14.90;7.00;;;;;;;;;;110277;1278;22178;-74
2023/05/13 01:12:53;;;;;;;16.60;7.90;;;;;;;;;;110284;1278;22098;-74
2023/05/13 01:15:21;;;;;;;16.90;8.80;;;;;;;;;;110457;1259;22015;-75
2023/05/13 01:18:14;;;;;;;18.30;9.00;;;;;;;;;;110259;1278;22998;-74
2023/05/13 01:20:41;;;;;;;14.10;8.10;;;;;;;;;;110347;1278;22206;-75
2023/05/13 01:23:09;;;;;;;16.10;8.20;;;;;;;;;;110150;1278;22130;-75
2023/05/13 01:25:36;;;;;;;15.70;8.20;;;;;;;;;;110375;1258;22209;-74
2023/05/13 01:28:03;;;;;;;17.90;8.10;;;;;;;;;;110274;1275;22866;-75
2023/05/13 01:30:30;;;;;;;14.60;7.10;;;;;;;;;;110284;1278;22924;-75
2023/05/13 01:32:57;;;;;;;18.90;6.40;;;;;;;;;;110377;1278;22100;-74
2023/05/13 01:35:25;;;;;;;13.60;6.00;;;;;;;;;;110460;1259;22479;-74
2023/05/13 01:37:55;;;;;;;13.00;5.50;;;;;;;;;;110164;1278;22208;-74
2023/05/13 01:40:22;;;;;;;15.00;5.30;;;;;;;;;;110168;1279;22007;-74
2023/05/13 01:42:48;;;;;;;15.70;5.80;;;;;;;;;;110211;1279;22259;-74
2023/05/13 01:45:15;;;;;;;14.30;5.50;;;;;;;;;;110309;1257;22981;-74
2023/05/13 01:47:42;;;;;;;14.20;5.40;;;;;;;;;;110199;1279;23109;-74
2023/05/13 01:50:09;;;;;;;14.30;6.20;;;;;;;;;;110200;1279;22113;-74
2023/05/13 01:52:36;;;;;;;15.00;6.90;;;;;;;;;;110296;1279;22897;-74
2023/05/13 01:55:03;;;;;;;13.90;7.10;;;;;;;;;;110327;1256;23172;-75
2023/05/13 01:57:30;;;;;;;14.80;7.90;;;;;;;;;;110119;1278;22105;-74
2023/05/13 01:59:57;;;;;;;14.80;7.70;;;;;;;;;;110211;1279;22204;-74
2023/05/13 02:02:24;;;;;;;14.20;7.40;;;;;;;;;;110208;1278;22180;-81
2023/05/13 02:04:51;;;;;;;15.10;8.50;;;;;;;;;;110209;1279;22095;-74
2023/05/13 02:07:18;;;;;;;14.70;8.00;;;;;;;;;;110489;1262;22171;-74
2023/05/13 02:09:45;;;;;;;14.70;7.40;;;;;;;;;;110136;1279;22119;-74
2023/05/13 02:12:12;;;;;;;18.30;7.00;;;;;;;;;;110138;1279;22084;-74
2023/05/13 02:14:38;;;;;;;15.90;7.30;;;;;;;;;;110181;1278;22120;-74
2023/05/13 02:17:05;;;;;;;15.80;6.80;;;;;;;;;;110398;1257;22184;-74
2023/05/13 02:19:32;;;;;;;13.70;7.10;;;;;;;;;;110123;1278;22720;-74
2023/05/13 02:21:58;;;;;;;12.20;7.20;;;;;;;;;;110314;1279;22850;-77
2023/05/13 02:24:25;;;;;;;17.60;7.60;;;;;;;;;;110176;1279;22735;-77
2023/05/13 02:26:53;;;;;;;14.10;7.60;;;;;;;;;;110284;1257;22282;-76
2023/05/13 02:29:20;;;;;;;13.60;8.20;;;;;;;;;;110305;1278;22150;-76
2023/05/13 02:31:47;;;;;;;17.60;8.40;;;;;;;;;;110216;1279;22056;-76
2023/05/13 02:34:15;;;;;;;17.60;8.60;;;;;;;;;;110137;1279;22076;-76
2023/05/13 02:36:42;;;;;;;14.80;7.80;;;;;;;;;;110213;1259;22142;-77
2023/05/13 02:39:09;;;;;;;18.10;8.90;;;;;;;;;;110141;1279;22908;-77
2023/05/13 02:41:36;;;;;;;14.80;8.00;;;;;;;;;;110160;1279;22153;-76
2023/05/13 02:44:06;;;;;;;16.10;7.90;;;;;;;;;;110158;1279;22134;-76
2023/05/13 02:46:34;;;;;;;14.70;7.70;;;;;;;;;;110291;1258;22206;-76
2023/05/13 02:49:04;;;;;;;16.80;7.80;;;;;;;;;;110173;1279;22101;-76
2023/05/13 02:51:31;;;;;;;14.50;7.00;;;;;;;;;;110281;1279;22992;-76
2023/05/13 02:53:58;;;;;;;17.10;7.60;;;;;;;;;;110174;1257;22160;-76
2023/05/13 02:56:29;;;;;;;15.60;8.30;;;;;;;;;;110288;1256;22222;-76
2023/05/13 02:58:57;;;;;;;17.90;8.00;;;;;;;;;;110151;1279;22085;-76
2023/05/13 03:01:25;;;;;;;18.50;8.60;;;;;;;;;;110254;1279;22161;-76
2023/05/13 03:03:52;;;;;;;15.40;8.70;;;;;;;;;;110154;1279;22159;-76
2023/05/13 03:06:20;;;;;;;16.90;8.30;;;;;;;;;;110259;1279;23177;-77
2023/05/13 03:08:46;;;;;;;16.80;9.40;;;;;;;;;;110122;1262;22867;-76
2023/05/13 03:11:13;;;;;;;18.40;9.20;;;;;;;;;;110187;1279;22155;-76
2023/05/13 03:13:40;;;;;;;16.30;8.30;;;;;;;;;;110164;1279;22095;-76
2023/05/13 03:16:07;;;;;;;17.10;8.20;;;;;;;;;;110162;1279;22014;-76
2023/05/13 03:18:34;;;;;;;18.00;7.70;;;;;;;;;;110262;1262;22173;-74
2023/05/13 03:21:01;;;;;;;16.00;8.40;;;;;;;;;;110171;1279;22188;-74
2023/05/13 03:23:29;;;;;;;15.50;7.80;;;;;;;;;;110139;1279;21989;-74
2023/05/13 03:25:56;;;;;;;15.60;7.70;;;;;;;;;;110153;1279;22175;-74
2023/05/13 03:28:22;;;;;;;16.70;9.30;;;;;;;;;;110223;1257;22135;-75
2023/05/13 03:30:50;;;;;;;14.70;8.80;;;;;;;;;;110152;1279;22084;-75
2023/05/13 03:33:18;;;;;;;22.20;9.20;;;;;;;;;;110171;1279;22866;-74
2023/05/13 03:35:47;;;;;;;21.70;9.40;;;;;;;;;;110271;1279;22855;-74
2023/05/13 03:38:15;;;;;;;20.40;9.30;;;;;;;;;;110228;1257;22015;-74
2023/05/13 03:40:44;;;;;;;18.70;10.10;;;;;;;;;;110232;1279;22149;-74
2023/05/13 03:43:11;;;;;;;20.90;9.80;;;;;;;;;;110191;1280;22982;-74
2023/05/13 03:45:39;;;;;;;21.20;8.90;;;;;;;;;;110151;1280;23133;-74
2023/05/13 03:48:09;;;;;;;15.40;7.40;;;;;;;;;;110201;1257;22085;-74
2023/05/13 03:50:37;;;;;;;14.10;7.00;;;;;;;;;;110090;1279;22099;-74
2023/05/13 03:53:05;;;;;;;12.30;5.90;;;;;;;;;;110160;1279;22723;-74
2023/05/13 03:55:32;;;;;;;13.00;6.50;;;;;;;;;;110154;1279;22162;-74
2023/05/13 03:58:09;;;;;;;16.00;7.40;;;;;;;;;;110143;1257;22081;-74
2023/05/13 04:00:37;;;;;;;16.00;8.40;;;;;;;;;;110154;1280;22252;-74
2023/05/13 04:03:04;;;;;;;17.60;8.20;;;;;;;;;;110201;1279;22140;-74
2023/05/13 04:05:32;;;;;;;14.40;7.80;;;;;;;;;;110158;1280;22175;-74
2023/05/13 04:07:59;;;;;;;20.00;8.90;;;;;;;;;;110176;1256;22135;-74
2023/05/13 04:10:27;;;;;;;18.40;9.30;;;;;;;;;;110206;1279;22937;-75
2023/05/13 04:12:54;;;;;;;19.10;9.20;;;;;;;;;;110173;1279;22093;-74
2023/05/13 04:15:22;;;;;;;20.10;9.40;;;;;;;;;;110200;1279;22120;-74
2023/05/13 04:17:49;;;;;;;29.00;12.10;;;;;;;;;;110129;1256;22384;-74
2023/05/13 04:20:17;;;;;;;27.10;10.90;;;;;;;;;;110156;1279;22789;-74
2023/05/13 04:22:44;;;;;;;32.10;11.60;;;;;;;;;;110173;1279;22982;-74
2023/05/13 04:25:14;;;;;;;24.50;12.30;;;;;;;;;;110144;1280;22209;-75
2023/05/13 04:27:42;;;;;;;33.00;12.90;;;;;;;;;;110223;1280;22174;-74
2023/05/13 04:30:16;;;;;;;29.50;12.30;;;;;;;;;;110415;1260;22759;-74
2023/05/13 04:32:44;;;;;;;21.50;10.50;;;;;;;;;;110146;1279;22203;-75
2023/05/13 04:35:12;;;;;;;24.20;10.40;;;;;;;;;;110200;1279;22224;-75
2023/05/13 04:37:41;;;;;;;21.90;9.30;;;;;;;;;;110193;1279;22191;-76
2023/05/13 04:40:13;;;;;;;19.50;8.50;;;;;;;;;;110320;1256;22094;-75
2023/05/13 04:42:42;;;;;;;15.70;8.20;;;;;;;;;;109992;1281;22850;-75
2023/05/13 04:45:11;;;;;;;19.80;7.70;;;;;;;;;;110087;1281;22064;-75
2023/05/13 04:47:40;;;;;;;18.30;7.80;;;;;;;;;;110060;1281;22960;-76
2023/05/13 04:50:09;;;;;;;17.10;8.20;;;;;;;;;;110325;1259;22928;-76
2023/05/13 04:52:38;;;;;;;15.70;7.70;;;;;;;;;;110065;1281;22443;-75
2023/05/13 04:55:07;;;;;;;15.80;7.20;;;;;;;;;;110129;1281;22301;-75
2023/05/13 04:57:36;;;;;;;17.40;7.60;;;;;;;;;;110055;1281;22210;-76
2023/05/13 05:00:08;;;;;;;16.10;7.70;;;;;;;;;;110217;1262;22115;-75
2023/05/13 05:02:39;;;;;;;16.00;8.20;;;;;;;;;;110019;1275;22142;-76
2023/05/13 05:05:08;;;;;;;19.40;8.50;;;;;;;;;;110017;1281;22088;-76
2023/05/13 05:07:39;;;;;;;16.00;8.10;;;;;;;;;;110055;1281;22153;-76
2023/05/13 05:10:07;;;;;;;17.80;8.30;;;;;;;;;;110208;1259;23016;-75
2023/05/13 05:12:41;;;;;;;18.80;8.70;;;;;;;;;;110007;1281;22835;-76
2023/05/13 05:15:14;;;;;;;18.10;8.00;;;;;;;;;;110032;1281;22275;-76
2023/05/13 05:17:44;;;;;;;16.50;8.30;;;;;;;;;;110021;1281;22007;-76
2023/05/13 05:20:13;;;;;;;17.10;7.60;;;;;;;;;;110215;1263;22162;-75
2023/05/13 05:22:41;;;;;;;16.70;8.20;;;;;;;;;;110087;1281;22144;-76
2023/05/13 05:25:11;;;;;;;14.30;7.90;;;;;;;;;;110067;1281;22138;-76
2023/05/13 05:27:40;;;;;;;16.00;8.50;;;;;;;;;;109994;1281;21769;-76
2023/05/13 05:30:10;;;;;;;16.60;9.00;;;;;;;;;;110186;1259;22124;-76
2023/05/13 05:32:39;;;;;;;16.90;8.90;;;;;;;;;;110055;1267;22950;-76
2023/05/13 05:35:08;;;;;;;19.20;9.60;;;;;;;;;;110067;1281;22089;-76
2023/05/13 05:37:37;;;;;;;14.50;8.80;;;;;;;;;;109992;1281;22245;-77
2023/05/13 05:45:19;;;;;;;16.40;9.50;;;;;;;;;;104832;1293;545048;-83
2023/05/13 05:47:47;;;;;;;14.30;8.60;;;;;;;;;;106057;1286;22581;-79
2023/05/13 05:50:13;;;;;;;15.30;8.80;;;;;;;;;;106045;1286;24251;-76
2023/05/13 05:52:40;;;;;;;16.10;8.30;;;;;;;;;;106385;1286;25332;-78
2023/05/13 05:55:07;;;;;;;14.30;7.40;;;;;;;;;;106279;1270;22537;-79
2023/05/13 05:57:34;;;;;;;13.30;7.80;;;;;;;;;;106283;1288;22529;-83
2023/05/13 06:00:00;;;;;;;13.90;8.60;;;;;;;;;;104228;1285;2929556;-80
2023/05/13 06:02:28;;;;;;;14.80;7.50;;;;;;;;;;106880;1274;22533;-78
2023/05/13 06:04:55;;;;;;;13.90;7.60;;;;;;;;;;107143;1257;22524;-76
2023/05/13 06:07:22;;;;;;;14.20;7.60;;;;;;;;;;106938;1273;25399;-77
2023/05/13 06:09:49;;;;;;;14.80;7.80;;;;;;;;;;107077;1273;22515;-80
2023/05/13 06:12:15;;;;;;;17.20;7.70;;;;;;;;;;106958;1273;22605;-78
2023/05/13 06:14:42;;;;;;;14.40;7.70;;;;;;;;;;107057;1251;22621;-79
2023/05/13 06:17:09;;;;;;;14.40;7.30;;;;;;;;;;106753;1264;23176;-81
2023/05/13 06:19:36;;;;;;;16.80;7.80;;;;;;;;;;107122;1274;24240;-78
2023/05/13 06:22:03;;;;;;;12.90;7.10;;;;;;;;;;107129;1274;23899;-77
2023/05/13 06:24:29;;;;;;;12.00;7.10;;;;;;;;;;107062;1274;22529;-81
2023/05/13 06:26:56;;;;;;;12.30;7.30;;;;;;;;;;107124;1273;22532;-80
2023/05/13 06:29:23;;;;;;;13.50;7.10;;;;;;;;;;107201;1273;22520;-76
2023/05/13 06:31:50;;;;;;;13.30;7.40;;;;;;;;;;107197;1273;22535;-80
2023/05/13 06:34:17;;;;;;;11.60;6.90;;;;;;;;;;107188;1273;25252;-80
2023/05/13 06:36:44;;;;;;;13.20;7.20;;;;;;;;;;107149;1254;23871;-77
2023/05/13 06:39:11;;;;;;;16.50;7.60;;;;;;;;;;107095;1274;22630;-83
2023/05/13 06:41:39;;;;;;;13.80;7.20;;;;;;;;;;106958;1275;22641;-80
2023/05/13 06:44:19;;;;;;;13.20;6.60;;;;;;;;;;106808;1275;22996;-83
2023/05/13 06:46:47;;;;;;;12.50;7.10;;;;;;;;;;107084;1256;25243;-78
2023/05/13 06:49:13;;;;;;;16.70;7.20;;;;;;;;;;107113;1274;22575;-76
2023/05/13 06:51:40;;;;;;;13.30;7.10;;;;;;;;;;107118;1274;24225;-78
2023/05/13 06:54:07;;;;;;;12.00;6.40;;;;;;;;;;107122;1274;22844;-81
2023/05/13 06:56:33;;;;;;;13.50;6.80;;;;;;;;;;107010;1259;22527;-77
2023/05/13 06:59:01;;;;;;;13.50;7.60;;;;;;;;;;106840;1273;26578;-79
2023/05/13 07:01:30;;;;;;;12.30;6.80;;;;;;;;;;106861;1276;25303;-77
2023/05/13 07:03:57;;;;;;;12.70;6.90;;;;;;;;;;106875;1276;22673;-81
2023/05/13 07:06:24;;;;;;;12.70;7.30;;;;;;;;;;106879;1257;22627;-76
2023/05/13 07:08:51;;;;;;;12.50;7.20;;;;;;;;;;107016;1276;22544;-79
2023/05/13 07:11:17;;;;;;;15.80;7.40;;;;;;;;;;107032;1275;22537;-80
2023/05/13 07:13:44;;;;;;;14.60;7.40;;;;;;;;;;106950;1275;22527;-76
2023/05/13 07:16:12;;;;;;;11.00;6.80;;;;;;;;;;106759;1276;23860;-77
2023/05/13 07:18:39;;;;;;;13.20;7.30;;;;;;;;;;106771;1276;22549;-79
2023/05/13 07:21:09;;;;;;;13.60;7.00;;;;;;;;;;106664;1276;22618;-77
2023/05/13 07:30:57;;;;;;;14.90;7.70;;;;;;;;;;104344;1288;544875;-79
2023/05/13 07:33:24;;;;;;;11.00;6.50;;;;;;;;;;106082;1288;22536;-78
2023/05/13 07:35:51;;;;;;;12.30;6.10;;;;;;;;;;106042;1288;23883;-77
2023/05/13 07:38:18;;;;;;;10.20;5.70;;;;;;;;;;106060;1283;24571;-84
2023/05/13 07:40:45;;;;;;;15.00;6.00;;;;;;;;;;106030;1269;22753;-76
2023/05/13 07:43:12;;;;;;;13.40;6.20;;;;;;;;;;106072;1282;21889;-78
2023/05/13 07:45:41;;;;;;;10.00;5.80;;;;;;;;;;104209;1284;2885788;-78
2023/05/13 07:48:08;;;;;;;11.30;6.10;;;;;;;;;;106388;1279;24206;-79
2023/05/13 07:50:36;;;;;;;11.90;6.00;;;;;;;;;;106310;1269;25281;-77
2023/05/13 07:53:03;;;;;;;14.30;6.70;;;;;;;;;;106228;1287;22529;-80
2023/05/13 07:55:30;;;;;;;12.00;6.40;;;;;;;;;;106333;1285;22553;-77
2023/05/13 07:57:57;;;;;;;14.20;7.00;;;;;;;;;;106310;1279;24231;-76
2023/05/13 08:00:24;;;;;;;11.90;6.40;;;;;;;;;;106090;1269;22550;-76
2023/05/13 08:02:52;;;;;;;13.90;6.60;;;;;;;;;;106101;1280;22630;-79
2023/05/13 08:05:19;;;;;;;14.80;6.50;;;;;;;;;;106270;1279;22536;-75
2023/05/13 08:07:46;;;;;;;11.40;6.00;;;;;;;;;;106233;1286;25188;-85
2023/05/13 08:10:13;;;;;;;11.80;6.00;;;;;;;;;;106280;1279;22587;-79
2023/05/13 08:12:40;;;;;;;10.60;5.80;;;;;;;;;;106131;1266;24200;-76
2023/05/13 08:15:07;;;;;;;11.50;6.30;;;;;;;;;;106251;1282;25233;-77
2023/05/13 08:17:35;;;;;;;11.90;6.20;;;;;;;;;;106136;1284;23190;-81
2023/05/13 08:20:02;;;;;;;12.70;6.40;;;;;;;;;;106337;1279;22577;-78
2023/05/13 08:22:29;;;;;;;12.70;6.20;;;;;;;;;;106373;1279;22610;-77
2023/05/13 08:24:58;;;;;;;11.90;7.00;;;;;;;;;;106942;1269;25269;-82
2023/05/13 08:27:25;;;;;;;21.90;13.10;;;;;;;;;;107025;1273;22662;-79
2023/05/13 08:30:09;;;;;;;16.30;7.20;;;;;;;;;;107058;1273;25281;-77
2023/05/13 08:32:37;;;;;;;11.40;6.60;;;;;;;;;;106896;1259;22498;-78
2023/05/13 08:35:04;;;;;;;13.30;7.20;;;;;;;;;;106877;1270;22533;-78
2023/05/13 08:37:31;;;;;;;12.50;7.40;;;;;;;;;;107101;1273;22707;-77
2023/05/13 08:40:00;;;;;;;12.10;6.40;;;;;;;;;;106952;1270;24195;-77
2023/05/13 08:42:31;;;;;;;13.60;6.80;;;;;;;;;;106936;1270;22520;-79
2023/05/13 08:45:02;;;;;;;11.50;6.50;;;;;;;;;;107004;1270;22753;-77
2023/05/13 08:47:35;;;;;;;11.80;6.50;;;;;;;;;;107030;1270;22527;-76
2023/05/13 08:50:02;;;;;;;11.50;6.80;;;;;;;;;;107073;1270;22536;-78
2023/05/13 08:52:30;;;;;;;11.00;6.50;;;;;;;;;;106789;1267;24188;-79
2023/05/13 08:54:59;;;;;;;14.40;7.30;;;;;;;;;;107024;1276;22539;-84
2023/05/13 08:57:26;;;;;;;11.70;6.40;;;;;;;;;;106866;1276;21993;-82
2023/05/13 08:59:56;;;;;;;13.10;7.30;;;;;;;;;;106898;1270;24036;-77
2023/05/13 09:02:23;;;;;;;14.60;7.00;;;;;;;;;;106800;1257;22524;-81
2023/05/13 09:04:53;;;;;;;11.50;7.10;;;;;;;;;;106926;1273;22637;-76
2023/05/13 09:07:21;;;;;;;11.40;6.90;;;;;;;;;;106895;1270;22527;-76
2023/05/13 09:09:48;;;;;;;10.20;6.00;;;;;;;;;;106923;1270;24292;-80
2023/05/13 09:12:34;;;;;;;11.40;6.10;;;;;;;;;;106876;1267;22859;-79
2023/05/13 09:15:07;;;;;;;12.70;5.90;;;;;;;;;;106986;1270;22527;-76
2023/05/13 09:17:54;;;;;;;10.70;5.80;;;;;;;;;;107002;1271;22543;-81
2023/05/13 09:20:25;;;;;;;12.50;6.70;;;;;;;;;;106893;1273;22599;-78
2023/05/13 09:22:56;;;;;;;10.00;5.90;;;;;;;;;;106936;1257;22442;-76
2023/05/13 09:25:26;;;;;;;10.40;6.10;;;;;;;;;;106835;1276;22527;-80
2023/05/13 09:27:57;;;;;;;12.70;6.50;;;;;;;;;;106924;1273;23860;-78
2023/05/13 09:30:25;;;;;;;13.10;6.90;;;;;;;;;;106983;1270;22598;-81
2023/05/13 09:33:04;;;;;;;13.90;6.30;;;;;;;;;;106813;1269;22543;-76
2023/05/13 09:35:32;;;;;;;13.60;7.50;;;;;;;;;;106917;1272;23078;-79
2023/05/13 09:38:20;;;;;;;11.00;6.00;;;;;;;;;;106943;1273;22525;-81
2023/05/13 09:40:57;;;;;;;12.10;7.50;;;;;;;;;;106841;1275;24307;-76
2023/05/13 09:43:25;;;;;;;10.00;5.90;;;;;;;;;;106837;1257;24163;-77
2023/05/13 09:46:02;;;;;;;9.60;5.60;;;;;;;;;;106962;1276;22590;-77
2023/05/13 09:48:33;;;;;;;8.10;4.60;;;;;;;;;;106926;1272;25179;-80
2023/05/13 09:51:00;;;;;;;9.20;4.50;;;;;;;;;;106799;1273;25278;-78
2023/05/13 09:53:27;;;;;;;9.40;4.60;;;;;;;;;;106797;1257;25622;-79
2023/05/13 09:55:56;;;;;;;8.30;3.70;;;;;;;;;;106844;1274;22548;-77
2023/05/13 09:58:32;;;;;;;11.00;4.50;;;;;;;;;;106938;1269;22525;-78
2023/05/13 10:01:03;;;;;;;8.80;4.30;;;;;;;;;;106795;1270;23106;-76
2023/05/13 10:03:30;;;;;;;8.50;4.30;;;;;;;;;;106939;1267;23121;-84
2023/05/13 10:06:10;;;;;;;8.20;4.20;;;;;;;;;;106916;1264;24287;-82
2023/05/13 10:08:37;;;;;;;10.10;4.50;;;;;;;;;;106852;1276;22532;-79
2023/05/13 10:11:16;;;;;;;8.80;4.10;;;;;;;;;;106997;1276;22524;-80
2023/05/13 10:13:48;;;;;;;7.90;3.70;;;;;;;;;;106770;1258;25532;-78
2023/05/13 10:16:20;;;;;;;8.30;3.50;;;;;;;;;;106809;1270;24219;-78
2023/05/13 10:18:50;;;;;;;8.70;4.20;;;;;;;;;;106817;1274;22609;-82
2023/05/13 10:21:18;;;;;;;8.30;3.70;;;;;;;;;;106931;1270;25285;-77
2023/05/13 10:23:50;;;;;;;7.60;3.50;;;;;;;;;;106832;1276;26484;-80
2023/05/13 10:26:18;;;;;;;6.10;2.80;;;;;;;;;;106957;1275;25271;-77
2023/05/13 10:28:48;;;;;;;5.50;2.60;;;;;;;;;;106946;1276;24246;-78
2023/05/13 10:31:19;;;;;;;6.40;3.00;;;;;;;;;;106917;1276;24262;-77
2023/05/13 10:33:49;;;;;;;9.40;3.10;;;;;;;;;;106945;1257;25258;-77
2023/05/13 10:36:32;;;;;;;7.40;4.00;;;;;;;;;;106853;1273;25293;-79
2023/05/13 10:39:08;;;;;;;8.70;4.00;;;;;;;;;;106945;1276;23064;-81
2023/05/13 10:42:16;;;;;;;7.90;3.50;;;;;;;;;;106861;1276;22536;-80
2023/05/13 10:44:51;;;;;;;9.00;3.60;;;;;;;;;;106849;1257;22531;-77
2023/05/13 10:47:29;;;;;;;8.60;3.40;;;;;;;;;;106841;1276;25341;-82
2023/05/13 10:50:09;;;;;;;9.10;3.30;;;;;;;;;;106843;1276;24269;-79
2023/05/13 10:53:00;;;;;;;;;;;;;;;;;;;;;
2023/05/13 10:55:38;;;;;;;22.00;11.40;;;;;;;;;;106839;1267;24193;-81
2023/05/13 10:58:26;;;;;;;8.80;4.10;;;;;;;;;;106745;1276;25342;-78
2023/05/13 11:01:14;;;;;;;7.30;3.40;;;;;;;;;;106912;1276;23012;-79
2023/05/13 11:03:41;;;;;;;6.60;3.40;;;;;;;;;;106786;1276;24206;-77
2023/05/13 11:06:21;;;;;;;8.20;3.50;;;;;;;;;;106734;1269;22494;-80
2023/05/13 11:08:52;;;;;;;9.10;3.60;;;;;;;;;;106836;1273;24189;-79
2023/05/13 11:11:28;;;;;;;13.80;7.50;;;;;;;;;;106929;1275;22535;-78
2023/05/13 11:14:02;;;;;;;9.10;3.80;;;;;;;;;;106857;1276;24218;-76
2023/05/13 11:16:38;;;;;;;8.30;3.50;;;;;;;;;;106853;1274;25414;-79
2023/05/13 11:19:09;;;;;;;9.80;4.80;;;;;;;;;;106821;1273;22740;-81
2023/05/13 11:21:38;;;;;;;7.20;3.60;;;;;;;;;;106973;1276;25303;-79
2023/05/13 11:24:08;;;;;;;9.60;4.60;;;;;;;;;;106910;1276;22524;-76
2023/05/13 11:27:02;;;;;;;;;;;;;;;;;;;;;
2023/05/13 11:29:48;;;;;;;8.40;3.60;;;;;;;;;;106930;1276;22655;-80
2023/05/13 11:32:36;;;;;;;6.90;3.70;;;;;;;;;;106948;1269;25305;-79
2023/05/13 11:35:23;;;;;;;6.10;2.50;;;;;;;;;;106808;1257;25362;-77
2023/05/13 11:37:53;;;;;;;5.40;2.70;;;;;;;;;;106961;1272;25413;-82
2023/05/13 11:40:28;;;;;;;5.90;2.50;;;;;;;;;;106972;1272;22953;-79
2023/05/13 11:42:58;;;;;;;6.30;2.70;;;;;;;;;;106917;1276;25385;-79
2023/05/13 11:45:26;;;;;;;4.80;2.40;;;;;;;;;;106808;1258;22615;-77
2023/05/13 11:47:56;;;;;;;5.70;2.60;;;;;;;;;;107082;1272;25274;-80
2023/05/13 11:50:26;;;;;;;6.90;2.50;;;;;;;;;;106877;1276;24589;-80
2023/05/13 11:52:54;;;;;;;5.90;2.40;;;;;;;;;;107021;1269;24228;-76
2023/05/13 11:55:42;;;;;;;8.60;3.60;;;;;;;;;;106979;1272;25291;-77
2023/05/13 11:58:15;;;;;;;8.60;2.80;;;;;;;;;;106846;1269;24314;-84
2023/05/13 12:00:45;;;;;;;12.80;6.70;;;;;;;;;;107066;1270;26483;-77
2023/05/13 12:03:21;;;;;;;7.90;3.80;;;;;;;;;;106890;1269;22523;-77
2023/05/13 12:05:50;;;;;;;7.20;2.90;;;;;;;;;;106960;1253;22666;-82
2023/05/13 12:08:16;;;;;;;5.50;2.70;;;;;;;;;;106826;1269;24210;-78
2023/05/13 12:10:45;;;;;;;6.30;2.90;;;;;;;;;;106952;1273;25331;-79
2023/05/13 12:13:21;;;;;;;8.10;3.40;;;;;;;;;;107141;1270;22529;-77
2023/05/13 12:15:59;;;;;;;7.90;3.10;;;;;;;;;;107074;1261;23077;-79
2023/05/13 12:18:27;;;;;;;6.60;3.30;;;;;;;;;;108116;1276;23150;-78
2023/05/13 12:20:57;;;;;;;7.10;3.30;;;;;;;;;;106727;1270;22548;-81
2023/05/13 12:23:23;;;;;;;12.10;5.70;;;;;;;;;;110374;1270;22328;-76
2023/05/13 12:25:51;;;;;;;8.40;3.70;;;;;;;;;;110276;1253;22227;-77
2023/05/13 12:28:18;;;;;;;6.10;3.20;;;;;;;;;;110285;1271;22197;-76
2023/05/13 12:30:58;;;;;;;8.40;3.50;;;;;;;;;;110405;1275;22174;-75
2023/05/13 12:33:32;;;;;;;8.00;3.60;;;;;;;;;;110506;1268;23160;-77
2023/05/13 12:36:24;;;;;;;9.40;4.10;;;;;;;;;;110288;1254;23017;-77
2023/05/13 12:39:02;;;;;;;14.10;5.10;;;;;;;;;;110550;1269;22194;-77
2023/05/13 12:41:31;;;;;;;12.90;3.60;;;;;;;;;;110442;1270;22200;-76
2023/05/13 12:44:08;;;;;;;10.30;6.10;;;;;;;;;;110587;1276;22205;-79
2023/05/13 12:46:52;;;;;;;9.70;4.70;;;;;;;;;;110572;1258;22155;-77
2023/05/13 12:49:22;;;;;;;8.00;3.80;;;;;;;;;;110444;1276;22157;-77
2023/05/13 12:51:55;;;;;;;13.70;9.00;;;;;;;;;;110578;1276;22107;-78
2023/05/13 12:54:23;;;;;;;181.90;119.70;;;;;;;;;;110537;1275;22771;-76
2023/05/13 12:56:51;;;;;;;58.90;42.20;;;;;;;;;;110587;1256;22123;-76
2023/05/13 12:59:30;;;;;;;11.70;7.60;;;;;;;;;;110371;1276;22823;-76
2023/05/13 13:02:03;;;;;;;9.50;4.60;;;;;;;;;;110228;1276;22770;-76
2023/05/13 13:04:43;;;;;;;9.00;4.70;;;;;;;;;;110416;1276;21990;-77
2023/05/13 13:07:27;;;;;;;9.30;3.70;;;;;;;;;;110248;1260;22109;-76
2023/05/13 13:10:02;;;;;;;8.70;3.90;;;;;;;;;;110304;1277;22131;-77
2023/05/13 13:12:32;;;;;;;23.50;12.20;;;;;;;;;;110383;1277;22102;-77
2023/05/13 13:15:00;;;;;;;67.10;37.00;;;;;;;;;;110405;1277;22148;-76
2023/05/13 13:17:28;;;;;;;72.70;45.20;;;;;;;;;;110499;1253;22227;-76
2023/05/13 13:19:55;;;;;;;63.70;42.90;;;;;;;;;;110596;1276;22157;-76
2023/05/13 13:22:26;;;;;;;23.00;16.60;;;;;;;;;;110483;1276;22214;-77
2023/05/13 13:24:55;;;;;;;9.60;5.60;;;;;;;;;;110563;1275;22134;-78
2023/05/13 13:27:22;;;;;;;8.40;4.70;;;;;;;;;;110708;1253;22172;-77
2023/05/13 13:29:58;;;;;;;9.30;3.60;;;;;;;;;;110570;1276;22104;-79
2023/05/13 13:32:35;;;;;;;9.30;4.60;;;;;;;;;;110620;1276;22775;-78
2023/05/13 13:35:04;;;;;;;8.50;3.70;;;;;;;;;;110607;1276;22723;-77
2023/05/13 13:37:31;;;;;;;9.00;4.40;;;;;;;;;;110569;1258;22971;-77
2023/05/13 13:39:59;;;;;;;7.80;3.90;;;;;;;;;;110536;1276;22095;-76
2023/05/13 13:42:26;;;;;;;8.20;3.60;;;;;;;;;;110444;1276;22101;-79
2023/05/13 13:44:53;;;;;;;8.60;4.10;;;;;;;;;;110559;1276;22140;-76
2023/05/13 13:47:20;;;;;;;10.20;5.60;;;;;;;;;;110419;1253;22302;-75
2023/05/13 13:49:47;;;;;;;11.10;5.80;;;;;;;;;;110441;1276;22118;-76
2023/05/13 13:52:13;;;;;;;11.20;6.40;;;;;;;;;;110435;1276;22346;-79
2023/05/13 13:54:40;;;;;;;9.50;5.90;;;;;;;;;;110470;1276;22227;-75
2023/05/13 13:57:07;;;;;;;10.80;5.50;;;;;;;;;;110470;1276;22121;-76
2023/05/13 13:59:34;;;;;;;8.40;4.50;;;;;;;;;;110676;1256;22100;-76
2023/05/13 14:02:01;;;;;;;8.20;4.20;;;;;;;;;;110468;1276;23075;-76
2023/05/13 14:04:29;;;;;;;8.90;4.20;;;;;;;;;;110504;1276;22163;-78
2023/05/13 14:06:56;;;;;;;8.50;4.40;;;;;;;;;;110427;1276;22320;-77
2023/05/13 14:09:23;;;;;;;7.50;4.40;;;;;;;;;;110683;1257;22217;-79
2023/05/13 14:11:50;;;;;;;10.20;4.80;;;;;;;;;;110482;1276;22577;-76
2023/05/13 14:14:17;;;;;;;10.10;5.50;;;;;;;;;;110437;1276;22344;-77
2023/05/13 14:16:44;;;;;;;14.30;7.10;;;;;;;;;;110468;1276;22876;-76
2023/05/13 14:19:11;;;;;;;13.80;6.40;;;;;;;;;;110588;1256;22187;-76
2023/05/13 14:21:37;;;;;;;16.70;7.40;;;;;;;;;;110448;1276;22219;-77
2023/05/13 14:24:04;;;;;;;20.50;9.70;;;;;;;;;;110462;1276;22899;-79
2023/05/13 14:26:31;;;;;;;13.50;6.70;;;;;;;;;;110493;1276;22909;-76
2023/05/13 14:28:58;;;;;;;18.90;10.80;;;;;;;;;;110532;1257;22760;-75
2023/05/13 14:31:25;;;;;;;15.70;10.00;;;;;;;;;;110476;1276;22318;-75
2023/05/13 14:33:52;;;;;;;16.70;9.10;;;;;;;;;;110482;1276;22874;-76
2023/05/13 14:36:21;;;;;;;11.70;5.50;;;;;;;;;;110446;1276;23090;-78
2023/05/13 14:38:48;;;;;;;47.80;16.40;;;;;;;;;;110510;1257;22219;-76
2023/05/13 14:41:21;;;;;;;94.80;28.90;;;;;;;;;;110401;1277;22829;-77
2023/05/13 14:43:48;;;;;;;35.50;22.50;;;;;;;;;;110396;1277;23073;-77
2023/05/13 14:46:15;;;;;;;38.50;21.10;;;;;;;;;;110438;1277;22099;-77
2023/05/13 14:48:42;;;;;;;18.20;9.60;;;;;;;;;;110370;1256;22124;-76